Time;durP1;ratioP1;P1;durP2;ratioP2;P2;SDS_P1;SDS_P2;PMS_P1;PMS_P2;Temp;Humidity;BMP_temperature;BMP_pressure;BME280_temperature;BME280_humidity;BME280_pressure;Samples;Min_cycle;Max_cycle;Signal;HPM_P1;HPM_P2
2022/10/11 00:02:24;;;;;;;10.25;2.65;;;;;;;;;;5027077;28;20047;-78
2022/10/11 00:04:50;;;;;;;11.52;2.95;;;;;;;;;;5025066;28;20154;-78
2022/10/11 00:07:17;;;;;;;12.30;2.90;;;;;;;;;;5030072;28;20042;-77
2022/10/11 00:09:43;;;;;;;7.05;2.45;;;;;;;;;;5025856;28;20065;-78
2022/10/11 00:12:09;;;;;;;8.43;2.50;;;;;;;;;;5022032;28;20112;-78
2022/10/11 00:14:35;;;;;;;9.02;2.60;;;;;;;;;;5019072;28;20037;-78
2022/10/11 00:17:06;;;;;;;8.65;2.17;;;;;;;;;;5023756;28;20068;-77
2022/10/11 00:19:33;;;;;;;10.40;2.67;;;;;;;;;;5019972;28;20559;-78
2022/10/11 00:21:59;;;;;;;13.45;2.72;;;;;;;;;;5028236;28;20064;-78
2022/10/11 00:24:25;;;;;;;12.13;3.00;;;;;;;;;;5031382;28;20084;-78
2022/10/11 00:26:51;;;;;;;6.65;2.35;;;;;;;;;;5023593;28;20037;-77
2022/10/11 00:29:17;;;;;;;7.55;2.80;;;;;;;;;;5025756;28;20134;-78
2022/10/11 00:31:43;;;;;;;11.70;2.70;;;;;;;;;;5025658;28;20046;-78
2022/10/11 00:34:10;;;;;;;7.47;2.28;;;;;;;;;;5025915;28;20393;-77
2022/10/11 00:36:36;;;;;;;9.50;2.63;;;;;;;;;;5028128;28;20485;-77
2022/10/11 00:39:03;;;;;;;8.20;2.50;;;;;;;;;;5022155;28;20056;-78
2022/10/11 00:41:29;;;;;;;10.15;2.75;;;;;;;;;;5028029;28;20057;-78
2022/10/11 00:44:13;;;;;;;7.95;2.63;;;;;;;;;;5032382;28;20346;-78
2022/10/11 00:46:43;;;;;;;12.68;2.85;;;;;;;;;;5036312;28;20042;-78
2022/10/11 00:49:14;;;;;;;9.50;3.22;;;;;;;;;;5025109;28;20059;-77
2022/10/11 00:51:47;;;;;;;7.43;2.35;;;;;;;;;;5031623;28;20045;-77
2022/10/11 00:54:17;;;;;;;10.75;3.28;;;;;;;;;;5024665;28;20122;-78
2022/10/11 00:56:47;;;;;;;11.20;2.80;;;;;;;;;;5018651;28;20054;-78
2022/10/11 00:59:15;;;;;;;7.07;2.10;;;;;;;;;;5029508;28;20049;-78
2022/10/11 01:01:41;;;;;;;10.90;2.45;;;;;;;;;;5026745;28;20061;-77
2022/10/11 01:04:07;;;;;;;9.68;2.65;;;;;;;;;;5026066;28;20037;-78
2022/10/11 01:06:36;;;;;;;8.15;2.50;;;;;;;;;;5027631;28;20048;-77
2022/10/11 01:09:03;;;;;;;6.53;2.25;;;;;;;;;;5028345;28;20494;-77
2022/10/11 01:11:30;;;;;;;8.40;2.38;;;;;;;;;;5023033;28;20571;-77
2022/10/11 01:14:14;;;;;;;9.07;2.58;;;;;;;;;;5025837;28;20042;-78
2022/10/11 01:16:59;;;;;;;12.43;2.85;;;;;;;;;;5024674;28;20445;-78
2022/10/11 01:19:38;;;;;;;11.50;2.95;;;;;;;;;;5024081;28;20071;-78
2022/10/11 01:22:04;;;;;;;8.77;2.80;;;;;;;;;;5026575;28;20499;-78
2022/10/11 01:24:30;;;;;;;9.20;2.72;;;;;;;;;;5026967;28;20072;-77
2022/10/11 01:26:59;;;;;;;11.65;2.80;;;;;;;;;;5023009;28;20052;-78
2022/10/11 01:29:40;;;;;;;7.45;2.60;;;;;;;;;;5027024;28;20108;-78
2022/10/11 01:32:26;;;;;;;5.85;2.55;;;;;;;;;;5032052;28;20053;-78
2022/10/11 01:34:58;;;;;;;10.63;2.53;;;;;;;;;;5029717;28;20049;-77
2022/10/11 01:37:26;;;;;;;11.10;2.85;;;;;;;;;;5024512;28;20084;-78
2022/10/11 01:39:59;;;;;;;9.00;2.65;;;;;;;;;;5032667;28;20438;-78
2022/10/11 01:42:25;;;;;;;11.43;2.57;;;;;;;;;;5026431;28;20046;-78
2022/10/11 01:44:52;;;;;;;9.05;3.10;;;;;;;;;;5029030;28;20033;-78
2022/10/11 01:47:22;;;;;;;8.30;2.30;;;;;;;;;;5021539;28;20049;-78
2022/10/11 01:49:59;;;;;;;9.52;2.80;;;;;;;;;;5024919;28;20528;-77
2022/10/11 01:52:26;;;;;;;9.43;2.50;;;;;;;;;;5029702;28;20068;-77
2022/10/11 01:55:04;;;;;;;6.97;2.45;;;;;;;;;;5027979;28;20053;-78
2022/10/11 01:57:37;;;;;;;10.02;2.28;;;;;;;;;;5018659;28;20128;-77
2022/10/11 02:00:06;;;;;;;12.80;2.65;;;;;;;;;;5028938;28;20128;-77
2022/10/11 02:02:32;;;;;;;9.93;3.00;;;;;;;;;;5030773;28;20042;-78
2022/10/11 02:05:01;;;;;;;10.57;2.97;;;;;;;;;;5023824;28;20072;-77
2022/10/11 02:07:36;;;;;;;10.13;2.80;;;;;;;;;;5030587;28;20049;-78
2022/10/11 02:10:12;;;;;;;12.88;2.95;;;;;;;;;;5022179;28;20160;-78
2022/10/11 02:12:44;;;;;;;16.15;3.20;;;;;;;;;;5022667;28;20047;-78
2022/10/11 02:15:12;;;;;;;9.88;3.17;;;;;;;;;;5025395;28;20903;-77
2022/10/11 02:17:49;;;;;;;9.93;2.50;;;;;;;;;;5022635;28;20049;-78
2022/10/11 02:20:18;;;;;;;9.75;3.05;;;;;;;;;;5021750;28;20138;-78
2022/10/11 02:22:45;;;;;;;11.45;3.10;;;;;;;;;;5029519;28;20511;-78
2022/10/11 02:25:13;;;;;;;7.82;2.85;;;;;;;;;;5031644;28;20284;-77
2022/10/11 02:27:40;;;;;;;9.68;2.75;;;;;;;;;;5028807;28;20056;-78
2022/10/11 02:30:07;;;;;;;11.18;3.05;;;;;;;;;;5029043;28;20095;-78
2022/10/11 02:32:33;;;;;;;13.63;3.22;;;;;;;;;;5028954;28;20124;-78
2022/10/11 02:35:00;;;;;;;9.65;3.08;;;;;;;;;;5029524;28;20102;-77
2022/10/11 02:37:30;;;;;;;8.82;3.08;;;;;;;;;;5026298;28;20436;-78
2022/10/11 02:40:15;;;;;;;12.73;2.83;;;;;;;;;;5024344;28;20054;-78
2022/10/11 02:42:43;;;;;;;11.40;3.00;;;;;;;;;;5015300;28;20041;-78
2022/10/11 02:45:09;;;;;;;11.60;3.00;;;;;;;;;;5025705;28;20132;-78
2022/10/11 02:47:35;;;;;;;12.60;3.00;;;;;;;;;;5025331;28;20100;-78
2022/10/11 02:50:01;;;;;;;9.20;2.80;;;;;;;;;;5029107;28;20049;-78
2022/10/11 02:52:27;;;;;;;10.70;3.33;;;;;;;;;;5028027;28;20045;-78
2022/10/11 02:54:53;;;;;;;12.45;2.67;;;;;;;;;;5029536;28;20057;-77
2022/10/11 02:57:22;;;;;;;15.27;3.70;;;;;;;;;;5027449;28;20041;-78
2022/10/11 02:59:48;;;;;;;8.95;2.80;;;;;;;;;;5028798;28;20057;-77
2022/10/11 03:02:14;;;;;;;13.32;3.17;;;;;;;;;;5023398;28;20049;-78
2022/10/11 03:04:40;;;;;;;9.98;3.30;;;;;;;;;;5026611;28;20041;-78
2022/10/11 03:07:06;;;;;;;10.25;2.95;;;;;;;;;;5025269;28;20071;-78
2022/10/11 03:09:32;;;;;;;8.25;2.80;;;;;;;;;;5028976;28;20469;-78
2022/10/11 03:11:58;;;;;;;14.70;2.70;;;;;;;;;;5021909;28;20128;-77
2022/10/11 03:14:25;;;;;;;14.32;2.90;;;;;;;;;;5027895;28;20068;-78
2022/10/11 03:16:54;;;;;;;8.57;2.83;;;;;;;;;;5025605;28;20064;-78
2022/10/11 03:19:20;;;;;;;8.60;2.28;;;;;;;;;;5026992;28;20064;-78
2022/10/11 03:21:46;;;;;;;11.13;3.00;;;;;;;;;;5028994;28;20405;-78
2022/10/11 03:24:12;;;;;;;6.25;2.60;;;;;;;;;;5027966;28;20045;-78
2022/10/11 03:26:38;;;;;;;9.85;2.60;;;;;;;;;;5021517;28;22648;-78
2022/10/11 03:29:04;;;;;;;12.38;2.88;;;;;;;;;;5026840;28;20049;-78
2022/10/11 03:31:30;;;;;;;10.13;2.30;;;;;;;;;;5028160;28;20052;-78
2022/10/11 03:33:56;;;;;;;9.82;2.53;;;;;;;;;;5026025;28;20065;-78
2022/10/11 03:36:22;;;;;;;7.47;2.50;;;;;;;;;;5022174;28;20485;-78
2022/10/11 03:38:48;;;;;;;11.70;3.10;;;;;;;;;;5030514;28;20060;-78
2022/10/11 03:41:14;;;;;;;8.43;2.53;;;;;;;;;;5024448;28;20038;-78
2022/10/11 03:43:40;;;;;;;8.45;2.80;;;;;;;;;;5027743;28;20401;-78
2022/10/11 03:46:06;;;;;;;11.18;2.88;;;;;;;;;;5029956;28;20053;-78
2022/10/11 03:48:32;;;;;;;5.97;3.00;;;;;;;;;;5026631;28;20072;-78
2022/10/11 03:50:58;;;;;;;12.55;2.92;;;;;;;;;;5028834;28;20056;-78
2022/10/11 03:53:24;;;;;;;9.10;2.40;;;;;;;;;;5029890;28;20049;-78
2022/10/11 03:55:54;;;;;;;12.02;2.60;;;;;;;;;;5027384;28;20080;-78
2022/10/11 03:58:21;;;;;;;7.57;2.45;;;;;;;;;;5022824;28;20049;-78
2022/10/11 04:00:47;;;;;;;11.15;2.90;;;;;;;;;;5026345;28;20541;-78
2022/10/11 04:03:13;;;;;;;9.15;3.10;;;;;;;;;;5024609;28;20489;-78
2022/10/11 04:05:39;;;;;;;10.68;2.72;;;;;;;;;;5028017;28;20064;-78
2022/10/11 04:08:05;;;;;;;9.68;2.67;;;;;;;;;;5028778;28;20095;-78
2022/10/11 04:10:31;;;;;;;9.57;2.85;;;;;;;;;;5018422;28;20057;-77
2022/10/11 04:13:00;;;;;;;9.02;2.70;;;;;;;;;;5021136;28;20046;-78
2022/10/11 04:15:26;;;;;;;7.53;2.22;;;;;;;;;;5035264;28;20044;-78
2022/10/11 04:17:52;;;;;;;6.53;2.58;;;;;;;;;;5028179;28;20496;-78
2022/10/11 04:20:18;;;;;;;7.43;2.65;;;;;;;;;;5022152;28;20046;-78
2022/10/11 04:22:44;;;;;;;10.73;2.45;;;;;;;;;;5028220;28;20128;-78
2022/10/11 04:25:10;;;;;;;5.25;2.10;;;;;;;;;;5027329;28;20041;-78
2022/10/11 04:27:36;;;;;;;6.57;2.40;;;;;;;;;;5028331;28;20084;-78
2022/10/11 04:30:02;;;;;;;9.88;2.60;;;;;;;;;;5022954;28;20075;-78
2022/10/11 04:32:29;;;;;;;8.43;2.70;;;;;;;;;;5026248;28;20041;-77
2022/10/11 04:34:55;;;;;;;7.57;2.38;;;;;;;;;;5027082;28;20067;-77
2022/10/11 04:37:21;;;;;;;7.22;2.60;;;;;;;;;;5027681;28;20038;-77
2022/10/11 04:39:47;;;;;;;7.82;2.25;;;;;;;;;;5019335;28;20523;-77
2022/10/11 04:42:13;;;;;;;13.18;2.55;;;;;;;;;;5025156;28;20042;-77
2022/10/11 04:44:39;;;;;;;6.22;2.35;;;;;;;;;;5022284;28;20041;-78
2022/10/11 04:47:05;;;;;;;10.90;2.60;;;;;;;;;;5025594;28;20033;-78
2022/10/11 04:49:31;;;;;;;10.95;2.55;;;;;;;;;;5018384;28;20041;-77
2022/10/11 04:51:57;;;;;;;6.93;2.28;;;;;;;;;;5023838;28;20046;-78
2022/10/11 04:54:23;;;;;;;8.55;2.80;;;;;;;;;;5025514;28;20183;-78
2022/10/11 04:56:49;;;;;;;8.55;2.50;;;;;;;;;;5027512;28;20068;-78
2022/10/11 04:59:15;;;;;;;9.60;2.60;;;;;;;;;;5028502;28;20092;-78
2022/10/11 05:01:41;;;;;;;9.40;2.78;;;;;;;;;;5023531;28;20488;-78
2022/10/11 05:04:10;;;;;;;11.15;2.42;;;;;;;;;;5027202;28;20464;-78
2022/10/11 05:06:39;;;;;;;8.32;2.22;;;;;;;;;;5031089;28;20087;-78
2022/10/11 05:09:05;;;;;;;10.27;2.72;;;;;;;;;;5032321;28;20115;-78
2022/10/11 05:11:31;;;;;;;9.43;2.65;;;;;;;;;;5027198;28;20136;-78
2022/10/11 05:13:57;;;;;;;10.35;2.65;;;;;;;;;;5034202;28;20121;-78
2022/10/11 05:16:23;;;;;;;13.57;6.13;;;;;;;;;;5026996;28;20530;-78
2022/10/11 05:18:49;;;;;;;31.45;17.98;;;;;;;;;;5030695;28;20041;-78
2022/10/11 05:21:22;;;;;;;26.13;14.73;;;;;;;;;;5032345;28;20401;-78
2022/10/11 05:23:50;;;;;;;14.32;5.28;;;;;;;;;;5021972;28;20836;-78
2022/10/11 05:26:16;;;;;;;12.63;4.57;;;;;;;;;;5022576;28;20057;-78
2022/10/11 05:28:43;;;;;;;10.18;3.88;;;;;;;;;;5020270;28;20092;-77
2022/10/11 05:31:09;;;;;;;8.88;3.20;;;;;;;;;;5029646;28;20054;-77
2022/10/11 05:33:35;;;;;;;9.85;3.05;;;;;;;;;;5030126;28;20052;-78
2022/10/11 05:36:01;;;;;;;10.07;2.85;;;;;;;;;;5030698;28;20045;-78
2022/10/11 05:38:27;;;;;;;12.02;2.92;;;;;;;;;;5024602;28;20228;-78
2022/10/11 05:40:53;;;;;;;10.45;2.78;;;;;;;;;;5028361;28;20053;-77
2022/10/11 05:43:19;;;;;;;8.98;2.67;;;;;;;;;;5025694;28;20056;-78
2022/10/11 05:45:45;;;;;;;10.98;2.45;;;;;;;;;;5023941;28;20042;-78
2022/10/11 05:48:11;;;;;;;7.65;2.80;;;;;;;;;;5028982;28;20045;-77
2022/10/11 05:50:47;;;;;;;9.25;2.58;;;;;;;;;;5026549;28;20048;-86
2022/10/11 05:53:13;;;;;;;9.02;2.78;;;;;;;;;;5028485;28;20052;-79
2022/10/11 05:55:42;;;;;;;13.48;3.05;;;;;;;;;;5029222;28;20052;-79
2022/10/11 05:58:10;;;;;;;11.82;2.75;;;;;;;;;;5030670;28;20492;-79
2022/10/11 06:00:36;;;;;;;11.25;2.40;;;;;;;;;;5029494;28;20046;-80
2022/10/11 06:03:03;;;;;;;11.70;2.97;;;;;;;;;;5028869;28;20493;-79
2022/10/11 06:05:36;;;;;;;8.68;2.50;;;;;;;;;;5022521;28;20054;-80
2022/10/11 06:08:03;;;;;;;9.95;2.65;;;;;;;;;;5022961;28;20067;-79
2022/10/11 06:10:29;;;;;;;6.97;2.50;;;;;;;;;;5030634;28;20268;-80
2022/10/11 06:12:55;;;;;;;8.68;2.63;;;;;;;;;;5018406;28;20049;-79
2022/10/11 06:15:21;;;;;;;6.05;2.47;;;;;;;;;;5030358;28;20038;-79
2022/10/11 06:17:47;;;;;;;12.27;2.60;;;;;;;;;;5015697;28;20050;-79
2022/10/11 06:20:13;;;;;;;8.52;2.67;;;;;;;;;;5015541;28;20106;-79
2022/10/11 06:22:39;;;;;;;6.82;2.42;;;;;;;;;;5031713;28;20045;-79
2022/10/11 06:25:06;;;;;;;7.75;2.70;;;;;;;;;;5031496;28;20049;-79
2022/10/11 06:27:32;;;;;;;6.97;2.58;;;;;;;;;;5023807;28;20113;-79
2022/10/11 06:30:01;;;;;;;9.07;2.20;;;;;;;;;;5033942;28;20046;-80
2022/10/11 06:32:30;;;;;;;11.57;2.35;;;;;;;;;;5014442;28;20058;-80
2022/10/11 06:34:56;;;;;;;9.75;2.60;;;;;;;;;;5028637;28;20503;-79
2022/10/11 06:37:22;;;;;;;8.80;2.20;;;;;;;;;;5028825;28;20042;-80
2022/10/11 06:39:49;;;;;;;9.70;2.70;;;;;;;;;;5023449;28;20048;-80
2022/10/11 06:42:15;;;;;;;9.02;2.42;;;;;;;;;;5031775;28;20095;-80
2022/10/11 06:44:43;;;;;;;9.38;2.70;;;;;;;;;;5025928;28;20512;-80
2022/10/11 06:47:09;;;;;;;7.57;3.08;;;;;;;;;;5023143;28;20493;-80
2022/10/11 06:49:35;;;;;;;9.18;2.55;;;;;;;;;;5032058;28;20114;-79
2022/10/11 06:52:02;;;;;;;10.43;2.80;;;;;;;;;;5032743;28;20052;-80
2022/10/11 06:54:28;;;;;;;15.25;2.95;;;;;;;;;;5032706;28;20049;-80
2022/10/11 06:56:54;;;;;;;8.15;2.60;;;;;;;;;;5025905;28;20049;-80
2022/10/11 06:59:20;;;;;;;12.75;3.58;;;;;;;;;;5020990;28;20053;-79
2022/10/11 07:01:46;;;;;;;9.73;2.50;;;;;;;;;;5025382;28;20064;-79
2022/10/11 07:04:12;;;;;;;11.13;2.75;;;;;;;;;;5032269;28;20499;-79
2022/10/11 07:06:39;;;;;;;8.63;2.50;;;;;;;;;;5026467;28;20080;-78
2022/10/11 07:09:06;;;;;;;8.68;2.40;;;;;;;;;;5029249;28;20049;-79
2022/10/11 07:11:32;;;;;;;11.23;3.03;;;;;;;;;;5025741;28;20041;-78
2022/10/11 07:13:59;;;;;;;9.45;3.05;;;;;;;;;;5013129;28;20038;-78
2022/10/11 07:16:25;;;;;;;7.63;2.50;;;;;;;;;;5023247;28;20037;-78
2022/10/11 07:18:53;;;;;;;7.88;3.00;;;;;;;;;;5026841;28;20049;-79
2022/10/11 07:21:19;;;;;;;10.82;2.40;;;;;;;;;;5033228;28;20086;-79
2022/10/11 07:23:45;;;;;;;8.23;2.90;;;;;;;;;;5032768;28;20041;-79
2022/10/11 07:26:12;;;;;;;13.02;2.80;;;;;;;;;;5032024;28;20052;-79
2022/10/11 07:28:38;;;;;;;10.45;2.85;;;;;;;;;;5020712;28;20116;-79
2022/10/11 07:31:05;;;;;;;8.50;2.58;;;;;;;;;;5030849;28;20068;-79
2022/10/11 07:33:31;;;;;;;9.73;2.45;;;;;;;;;;5017991;28;20402;-79
2022/10/11 07:35:57;;;;;;;10.15;2.60;;;;;;;;;;5015130;28;20049;-79
2022/10/11 07:38:23;;;;;;;10.02;2.85;;;;;;;;;;5027724;28;20077;-80
2022/10/11 07:40:49;;;;;;;8.02;2.40;;;;;;;;;;5024851;28;20049;-81
2022/10/11 07:43:15;;;;;;;10.10;2.80;;;;;;;;;;5026440;28;20713;-79
2022/10/11 07:45:46;;;;;;;10.98;2.70;;;;;;;;;;5026402;28;20037;-78
2022/10/11 07:48:12;;;;;;;8.95;2.40;;;;;;;;;;5041238;28;20053;-78
2022/10/11 07:50:41;;;;;;;10.07;2.47;;;;;;;;;;5022866;28;20113;-79
2022/10/11 07:53:08;;;;;;;12.15;3.40;;;;;;;;;;5025783;28;20095;-79
2022/10/11 07:55:39;;;;;;;9.07;2.60;;;;;;;;;;5011680;28;20062;-79
2022/10/11 07:58:05;;;;;;;10.30;2.40;;;;;;;;;;5024094;28;20046;-78
2022/10/11 08:00:31;;;;;;;10.27;2.88;;;;;;;;;;5021390;28;20076;-77
2022/10/11 08:02:57;;;;;;;15.80;3.00;;;;;;;;;;5028284;28;20130;-79
2022/10/11 08:05:23;;;;;;;15.82;3.40;;;;;;;;;;5029546;28;20088;-79
2022/10/11 08:07:49;;;;;;;7.47;2.75;;;;;;;;;;5028716;28;20410;-79
2022/10/11 08:10:16;;;;;;;8.60;2.55;;;;;;;;;;5023682;28;20139;-78
2022/10/11 08:12:42;;;;;;;15.55;2.78;;;;;;;;;;5025408;28;20048;-79
2022/10/11 08:15:08;;;;;;;7.88;2.30;;;;;;;;;;5039331;28;20045;-79
2022/10/11 08:17:34;;;;;;;8.88;2.70;;;;;;;;;;5025446;28;20050;-79
2022/10/11 08:20:00;;;;;;;12.98;2.85;;;;;;;;;;5029951;28;20045;-79
2022/10/11 08:22:26;;;;;;;12.40;2.70;;;;;;;;;;5013273;28;20104;-79
2022/10/11 08:24:52;;;;;;;14.05;3.22;;;;;;;;;;5025992;28;20091;-79
2022/10/11 08:27:18;;;;;;;9.52;3.00;;;;;;;;;;5023509;28;20458;-79
2022/10/11 08:29:44;;;;;;;6.72;2.50;;;;;;;;;;5021000;28;20095;-79
2022/10/11 08:32:11;;;;;;;10.98;2.90;;;;;;;;;;5019633;28;20049;-80
2022/10/11 08:34:37;;;;;;;11.00;2.58;;;;;;;;;;5023740;28;20494;-79
2022/10/11 08:37:03;;;;;;;8.68;2.85;;;;;;;;;;5022577;28;20041;-79
2022/10/11 08:39:29;;;;;;;7.82;2.80;;;;;;;;;;5023291;28;20576;-79
2022/10/11 08:41:58;;;;;;;6.82;2.50;;;;;;;;;;5024567;28;20408;-79
2022/10/11 08:44:34;;;;;;;7.82;2.85;;;;;;;;;;5028017;28;20049;-79
2022/10/11 08:47:10;;;;;;;10.73;2.40;;;;;;;;;;5028518;28;20052;-79
2022/10/11 08:49:37;;;;;;;12.50;2.97;;;;;;;;;;5033748;28;20401;-78
2022/10/11 08:52:11;;;;;;;9.90;2.42;;;;;;;;;;5034199;28;20041;-79
2022/10/11 08:54:43;;;;;;;9.05;2.63;;;;;;;;;;5026682;28;20053;-78
2022/10/11 08:57:13;;;;;;;8.32;2.65;;;;;;;;;;5019739;28;20382;-79
2022/10/11 08:59:42;;;;;;;15.32;3.35;;;;;;;;;;5025791;28;20455;-79
2022/10/11 09:02:14;;;;;;;8.60;2.47;;;;;;;;;;5022499;28;20393;-79
2022/10/11 09:04:40;;;;;;;9.43;2.78;;;;;;;;;;5020805;28;20050;-79
2022/10/11 09:07:15;;;;;;;6.55;2.17;;;;;;;;;;5018377;28;20084;-79
2022/10/11 09:09:55;;;;;;;6.75;2.35;;;;;;;;;;5029131;28;20043;-80
2022/10/11 09:12:34;;;;;;;7.95;2.75;;;;;;;;;;5028211;28;20045;-80
2022/10/11 09:15:19;;;;;;;9.15;2.40;;;;;;;;;;5026645;28;20561;-79
2022/10/11 09:17:51;;;;;;;8.93;2.53;;;;;;;;;;5019528;28;20132;-79
2022/10/11 09:20:37;;;;;;;7.38;2.05;;;;;;;;;;5022898;28;20103;-79
2022/10/11 09:23:03;;;;;;;9.15;2.33;;;;;;;;;;5024483;28;20549;-79
2022/10/11 09:25:31;;;;;;;8.38;2.92;;;;;;;;;;5018034;28;20046;-79
2022/10/11 09:28:16;;;;;;;7.18;2.53;;;;;;;;;;5027523;28;20047;-79
2022/10/11 09:30:46;;;;;;;11.43;2.95;;;;;;;;;;5027281;28;20033;-80
2022/10/11 09:33:32;;;;;;;12.07;2.50;;;;;;;;;;5023394;28;20409;-80
2022/10/11 09:35:58;;;;;;;11.63;3.10;;;;;;;;;;5023480;28;20389;-80
2022/10/11 09:38:31;;;;;;;8.27;2.30;;;;;;;;;;5021797;28;20060;-80
2022/10/11 09:41:16;;;;;;;8.07;2.42;;;;;;;;;;5024530;28;20493;-79
2022/10/11 09:43:45;;;;;;;6.38;2.60;;;;;;;;;;5022690;28;20072;-80
2022/10/11 09:46:20;;;;;;;8.30;2.60;;;;;;;;;;5024004;28;20058;-79
2022/10/11 09:48:46;;;;;;;9.75;2.75;;;;;;;;;;5021701;28;20053;-80
2022/10/11 09:51:16;;;;;;;7.78;2.45;;;;;;;;;;5026765;28;20071;-79
2022/10/11 09:53:49;;;;;;;7.50;2.60;;;;;;;;;;5028719;28;20171;-79
2022/10/11 09:56:15;;;;;;;9.32;2.70;;;;;;;;;;5029185;28;20085;-80
2022/10/11 09:58:42;;;;;;;11.02;3.17;;;;;;;;;;5029723;28;20045;-80
2022/10/11 10:01:10;;;;;;;5.88;2.33;;;;;;;;;;5029162;28;20124;-80
2022/10/11 10:03:41;;;;;;;10.20;2.75;;;;;;;;;;5028344;28;20052;-80
2022/10/11 10:06:09;;;;;;;9.70;2.20;;;;;;;;;;5026110;28;20059;-80
2022/10/11 10:08:35;;;;;;;10.70;2.55;;;;;;;;;;5030135;28;20038;-79
2022/10/11 10:11:06;;;;;;;9.18;2.75;;;;;;;;;;5029363;28;20053;-80
2022/10/11 10:13:35;;;;;;;8.30;2.70;;;;;;;;;;5024689;28;20124;-80
2022/10/11 10:16:02;;;;;;;8.77;2.30;;;;;;;;;;5026136;28;20037;-81
2022/10/11 10:18:28;;;;;;;7.30;2.22;;;;;;;;;;5025031;28;20045;-80
2022/10/11 10:20:55;;;;;;;9.50;2.58;;;;;;;;;;5033725;28;20053;-80
2022/10/11 10:23:36;;;;;;;8.13;2.55;;;;;;;;;;5019826;28;20052;-79
2022/10/11 10:26:10;;;;;;;7.75;2.70;;;;;;;;;;5021175;28;20081;-80
2022/10/11 10:28:36;;;;;;;8.13;2.25;;;;;;;;;;5029026;28;20045;-81
2022/10/11 10:31:02;;;;;;;10.73;2.63;;;;;;;;;;5030909;28;20122;-79
2022/10/11 10:33:34;;;;;;;9.73;2.78;;;;;;;;;;5025334;28;20056;-78
2022/10/11 10:36:06;;;;;;;7.18;2.20;;;;;;;;;;5027199;28;20041;-80
2022/10/11 10:38:34;;;;;;;5.47;2.03;;;;;;;;;;5020717;28;20382;-79
2022/10/11 10:41:09;;;;;;;6.43;2.10;;;;;;;;;;5015077;28;20064;-79
2022/10/11 10:43:36;;;;;;;8.07;2.03;;;;;;;;;;5011844;28;20045;-79
2022/10/11 10:46:02;;;;;;;7.35;2.10;;;;;;;;;;5011332;28;20074;-79
2022/10/11 10:48:49;;;;;;;7.00;2.13;;;;;;;;;;5020277;28;20145;-79
2022/10/11 10:51:42;;;;;;;8.05;2.28;;;;;;;;;;5022043;28;20448;-79
2022/10/11 10:54:27;;;;;;;8.48;2.38;;;;;;;;;;5032241;28;20056;-80
2022/10/11 10:57:02;;;;;;;9.18;2.35;;;;;;;;;;5026202;28;20053;-79
2022/10/11 10:59:41;;;;;;;5.70;2.03;;;;;;;;;;5011784;28;20595;-80
2022/10/11 11:02:21;;;;;;;7.28;2.20;;;;;;;;;;5025459;28;20501;-79
2022/10/11 11:04:58;;;;;;;5.28;1.90;;;;;;;;;;5027159;28;20042;-79
2022/10/11 11:07:35;;;;;;;8.93;2.20;;;;;;;;;;5015076;28;20171;-79
2022/10/11 11:10:03;;;;;;;5.65;2.10;;;;;;;;;;5025846;28;20045;-80
2022/10/11 11:12:35;;;;;;;8.45;2.28;;;;;;;;;;5032418;28;20057;-80
2022/10/11 11:15:20;;;;;;;9.95;2.78;;;;;;;;;;5024263;28;21575;-80
2022/10/11 11:18:01;;;;;;;5.90;1.90;;;;;;;;;;5022160;28;20092;-79
2022/10/11 11:20:43;;;;;;;5.55;2.05;;;;;;;;;;5020034;28;20077;-79
2022/10/11 11:23:15;;;;;;;10.30;2.50;;;;;;;;;;5019753;28;20485;-79
2022/10/11 11:25:49;;;;;;;7.30;2.05;;;;;;;;;;5016136;28;20041;-81
2022/10/11 11:28:24;;;;;;;5.53;2.17;;;;;;;;;;5020087;28;20128;-78
2022/10/11 11:31:09;;;;;;;7.55;2.55;;;;;;;;;;5027219;28;20123;-82
2022/10/11 11:33:54;;;;;;;6.97;2.25;;;;;;;;;;5019984;28;20404;-79
2022/10/11 11:36:35;;;;;;;8.23;2.67;;;;;;;;;;5022888;28;20404;-80
2022/10/11 11:39:03;;;;;;;8.50;2.38;;;;;;;;;;5030078;28;20048;-80
2022/10/11 11:41:48;;;;;;;8.80;2.25;;;;;;;;;;5022163;28;20638;-80
2022/10/11 11:44:31;;;;;;;7.85;2.15;;;;;;;;;;5018695;28;20049;-80
2022/10/11 11:47:00;;;;;;;6.68;2.30;;;;;;;;;;5020592;28;20492;-80
2022/10/11 11:49:31;;;;;;;7.00;2.13;;;;;;;;;;5027808;28;20132;-79
2022/10/11 11:51:58;;;;;;;7.38;2.28;;;;;;;;;;5026301;28;20052;-78
2022/10/11 11:54:33;;;;;;;5.07;2.15;;;;;;;;;;5026388;28;20497;-80
2022/10/11 11:57:07;;;;;;;5.20;2.00;;;;;;;;;;5028581;28;20045;-80
2022/10/11 11:59:36;;;;;;;5.43;2.47;;;;;;;;;;5016939;28;20323;-80
2022/10/11 12:02:17;;;;;;;5.30;2.00;;;;;;;;;;5030394;28;20041;-80
2022/10/11 12:04:47;;;;;;;7.60;2.22;;;;;;;;;;5018293;28;20041;-80
2022/10/11 12:07:21;;;;;;;6.43;2.05;;;;;;;;;;5019973;28;20057;-80
2022/10/11 12:09:49;;;;;;;10.95;2.45;;;;;;;;;;5016821;28;20044;-80
2022/10/11 12:12:24;;;;;;;8.18;2.33;;;;;;;;;;5017544;28;20041;-80
2022/10/11 12:14:52;;;;;;;4.57;2.10;;;;;;;;;;5015412;28;20176;-80
2022/10/11 12:17:19;;;;;;;4.53;2.15;;;;;;;;;;5012757;28;20041;-78
2022/10/11 12:20:04;;;;;;;5.50;1.85;;;;;;;;;;5020516;28;20180;-78
2022/10/11 12:22:31;;;;;;;7.97;2.42;;;;;;;;;;5010316;28;20046;-78
2022/10/11 12:24:59;;;;;;;2.88;2.03;;;;;;;;;;5021908;28;20053;-78
2022/10/11 12:27:36;;;;;;;8.25;2.08;;;;;;;;;;5026035;28;20054;-78
2022/10/11 12:30:04;;;;;;;6.40;2.38;;;;;;;;;;5030441;28;20045;-78
2022/10/11 12:32:37;;;;;;;6.50;2.47;;;;;;;;;;5027974;28;20068;-78
2022/10/11 12:35:23;;;;;;;7.50;2.50;;;;;;;;;;5027598;28;20041;-79
2022/10/11 12:37:51;;;;;;;6.10;1.80;;;;;;;;;;5010912;28;20068;-78
2022/10/11 12:40:35;;;;;;;6.22;2.45;;;;;;;;;;5022212;28;20088;-79
2022/10/11 12:43:09;;;;;;;7.72;2.17;;;;;;;;;;5029255;28;20076;-78
2022/10/11 12:45:35;;;;;;;5.30;1.80;;;;;;;;;;5020881;28;20044;-77
2022/10/11 12:48:15;;;;;;;7.60;2.17;;;;;;;;;;5030889;28;20041;-77
2022/10/11 12:50:51;;;;;;;5.35;1.90;;;;;;;;;;5034253;28;20049;-77
2022/10/11 12:53:53;;;;;;;7.50;2.10;;;;;;;;;;5028091;28;20048;-80
2022/10/11 12:56:22;;;;;;;7.65;2.20;;;;;;;;;;4980458;28;20329;-77
2022/10/11 12:58:48;;;;;;;8.15;2.53;;;;;;;;;;5022046;28;20101;-78
2022/10/11 13:01:17;;;;;;;7.95;2.42;;;;;;;;;;5026761;28;20811;-78
2022/10/11 13:03:49;;;;;;;5.28;2.38;;;;;;;;;;5013200;28;20099;-78
2022/10/11 13:06:16;;;;;;;6.28;2.35;;;;;;;;;;5022608;28;20049;-78
2022/10/11 13:08:44;;;;;;;4.88;2.00;;;;;;;;;;5027391;28;20607;-78
2022/10/11 13:11:16;;;;;;;5.18;2.20;;;;;;;;;;5030732;28;20041;-78
2022/10/11 13:13:44;;;;;;;2.97;1.90;;;;;;;;;;5028367;28;20557;-78
2022/10/11 13:16:15;;;;;;;5.85;2.10;;;;;;;;;;5026556;28;20060;-78
2022/10/11 13:18:43;;;;;;;9.65;2.60;;;;;;;;;;5028947;28;20104;-77
2022/10/11 13:21:16;;;;;;;5.85;2.40;;;;;;;;;;5030169;28;20497;-80
2022/10/11 13:23:42;;;;;;;;;;;;;;;;;;5025448;28;20060;-79
2022/10/11 13:26:08;;;;;;;4.18;2.10;;;;;;;;;;5031238;28;19921;-79
2022/10/11 13:28:34;;;;;;;5.10;2.20;;;;;;;;;;5024498;28;20041;-79
2022/10/11 13:31:00;;;;;;;6.15;2.50;;;;;;;;;;5024665;28;20144;-79
2022/10/11 13:33:34;;;;;;;6.63;1.95;;;;;;;;;;5030043;28;20037;-80
2022/10/11 13:36:00;;;;;;;6.43;2.00;;;;;;;;;;5028829;28;20133;-80
2022/10/11 13:38:28;;;;;;;5.10;2.08;;;;;;;;;;5025483;28;20038;-80
2022/10/11 13:40:55;;;;;;;4.05;2.10;;;;;;;;;;5032307;28;20053;-82
2022/10/11 13:43:24;;;;;;;3.28;1.70;;;;;;;;;;5024652;28;20045;-81
2022/10/11 13:45:50;;;;;;;6.40;2.10;;;;;;;;;;5020812;28;20045;-82
2022/10/11 13:48:16;;;;;;;4.45;2.08;;;;;;;;;;5027586;28;20050;-80
2022/10/11 13:50:49;;;;;;;6.50;2.00;;;;;;;;;;5028070;28;20389;-80
2022/10/11 13:53:15;;;;;;;5.03;2.00;;;;;;;;;;5027716;28;20085;-80
2022/10/11 13:55:43;;;;;;;3.92;1.80;;;;;;;;;;5025978;28;20127;-81
2022/10/11 13:58:10;;;;;;;3.53;1.77;;;;;;;;;;5030251;28;20152;-80
2022/10/11 14:00:37;;;;;;;3.70;1.70;;;;;;;;;;5018742;28;20041;-81
2022/10/11 14:03:13;;;;;;;5.25;1.80;;;;;;;;;;5019549;28;20100;-80
2022/10/11 14:05:43;;;;;;;5.45;1.75;;;;;;;;;;5022700;28;20072;-80
2022/10/11 14:08:25;;;;;;;6.43;2.17;;;;;;;;;;5021477;28;20045;-80
2022/10/11 14:10:52;;;;;;;5.05;1.88;;;;;;;;;;5021303;28;20076;-80
2022/10/11 14:13:25;;;;;;;5.25;1.90;;;;;;;;;;5021603;28;20069;-81
2022/10/11 14:16:17;;;;;;;3.45;1.80;;;;;;;;;;5022922;28;20550;-80
2022/10/11 14:18:58;;;;;;;2.92;1.90;;;;;;;;;;5002881;28;20054;-80
2022/10/11 14:21:26;;;;;;;8.18;1.70;;;;;;;;;;5018831;28;20069;-81
2022/10/11 14:23:53;;;;;;;3.28;1.70;;;;;;;;;;5019229;28;20044;-80
2022/10/11 14:26:20;;;;;;;4.82;2.00;;;;;;;;;;5026377;28;20041;-80
2022/10/11 14:28:49;;;;;;;5.18;2.10;;;;;;;;;;5020258;28;20038;-80
2022/10/11 14:31:15;;;;;;;4.40;1.88;;;;;;;;;;5018518;28;20060;-80
2022/10/11 14:33:41;;;;;;;4.88;1.85;;;;;;;;;;5020767;28;20045;-80
2022/10/11 14:36:07;;;;;;;4.90;2.00;;;;;;;;;;5022089;28;20052;-80
2022/10/11 14:38:33;;;;;;;6.22;1.98;;;;;;;;;;5020179;28;20264;-81
2022/10/11 14:40:59;;;;;;;6.63;1.98;;;;;;;;;;5024055;28;20382;-80
2022/10/11 14:43:25;;;;;;;6.60;1.77;;;;;;;;;;5022893;28;20061;-80
2022/10/11 14:45:51;;;;;;;3.92;1.70;;;;;;;;;;5018708;28;20049;-80
2022/10/11 14:48:17;;;;;;;4.47;1.77;;;;;;;;;;5025193;28;20389;-80
2022/10/11 14:50:48;;;;;;;4.03;1.65;;;;;;;;;;5023163;28;20049;-80
2022/10/11 14:53:15;;;;;;;4.40;1.80;;;;;;;;;;5030759;28;20052;-83